createdAt,value
2023-05-11T06:49:51.156Z,16.22
2023-05-11T06:53:05.894Z,16.26
2023-05-11T06:56:12.064Z,16.29
2023-05-11T06:59:01.783Z,16.45
2023-05-11T07:02:01.069Z,16.37
2023-05-11T07:04:55.112Z,16.51
2023-05-11T07:08:01.107Z,16.38
2023-05-11T07:10:50.988Z,16.36
2023-05-11T07:13:37.453Z,16.54
2023-05-11T07:16:26.941Z,16.56
2023-05-11T07:19:13.665Z,16.55
2023-05-11T07:21:59.646Z,16.60
2023-05-11T07:24:45.552Z,16.55
2023-05-11T07:27:31.698Z,16.61
2023-05-11T07:30:53.478Z,16.64
2023-05-11T07:33:54.126Z,16.48
2023-05-11T07:36:40.772Z,16.61
2023-05-11T07:39:56.409Z,16.61
2023-05-11T07:44:01.824Z,16.44
2023-05-11T07:46:58.960Z,16.51
2023-05-11T07:49:55.762Z,16.57
2023-05-11T07:52:53.367Z,16.53
2023-05-11T07:56:06.338Z,16.50
2023-05-11T07:59:10.133Z,16.49
2023-05-11T08:02:13.436Z,16.42
2023-05-11T08:05:13.482Z,16.48
2023-05-11T08:11:31.084Z,16.55
2023-05-11T08:14:38.675Z,16.62
2023-05-11T08:17:55.978Z,16.54
2023-05-11T08:21:26.990Z,16.64
2023-05-11T08:27:32.769Z,16.72
2023-05-11T08:30:37.278Z,16.83
2023-05-11T08:34:01.339Z,16.67
2023-05-11T08:37:38.562Z,16.70
2023-05-11T08:41:15.168Z,16.73
2023-05-11T08:52:50.822Z,16.71
2023-05-11T09:30:24.582Z,16.92
2023-05-11T11:51:58.370Z,16.92
2023-05-11T11:56:01.054Z,16.97
2023-05-11T11:59:21.768Z,17.29
2023-05-11T12:07:13.347Z,17.29
2023-05-11T12:10:18.217Z,17.13
2023-05-11T12:14:08.311Z,17.20
2023-05-11T12:17:29.921Z,17.21
2023-05-11T12:20:29.646Z,17.19
2023-05-11T12:23:16.358Z,17.34
2023-05-11T12:26:07.353Z,17.27
2023-05-11T12:29:09.292Z,17.19
2023-05-11T12:31:56.432Z,17.23
2023-05-11T12:34:42.848Z,17.23
2023-05-11T12:37:32.518Z,17.25
2023-05-11T12:40:21.650Z,17.24
2023-05-11T12:43:08.071Z,17.28
2023-05-11T12:45:54.274Z,17.30
2023-05-11T12:48:40.780Z,17.23
2023-05-11T12:52:06.206Z,17.24
2023-05-11T12:54:53.920Z,17.25
2023-05-11T12:57:41.082Z,17.28
2023-05-11T13:00:27.365Z,17.33
2023-05-11T13:03:13.846Z,17.35
2023-05-11T13:06:09.577Z,17.34
2023-05-11T13:08:55.969Z,17.35
2023-05-11T13:11:42.812Z,17.37
2023-05-11T13:14:31.507Z,17.25
2023-05-11T13:18:01.130Z,17.29
2023-05-11T13:20:47.900Z,17.35
2023-05-11T13:23:37.316Z,17.34
2023-05-11T13:26:39.277Z,17.13
2023-05-11T13:33:03.971Z,17.23
2023-05-11T13:36:13.826Z,17.27
2023-05-11T13:39:29.322Z,17.24
2023-05-11T13:42:24.436Z,17.24
2023-05-11T13:45:38.412Z,17.29
2023-05-11T13:48:25.479Z,17.31
2023-05-11T13:52:04.607Z,17.32
2023-05-11T20:41:39.623Z,16.88
2023-05-11T21:13:26.896Z,16.74
2023-05-11T21:17:15.979Z,16.90
2023-05-11T21:20:21.683Z,16.83
2023-05-11T21:23:14.580Z,16.82
2023-05-11T21:26:04.351Z,16.84
2023-05-11T21:29:13.687Z,16.80
2023-05-11T21:36:31.564Z,16.94
